Terminal Aerodrome Forecast
Issued by NWS

Current Version | Previous Version | Graphics & Text | Print | Product List | Glossary On
Versions: 1 2 3 4 5 6 7 8 9 10 11 12 13 14
000
FTUS41 KILN 311700
TAFLCK
TAF
KLCK 311739Z 3118/0118 26009KT P6SM BKN050
     FM010100 VRB03KT P6SM SKC
     FM010700 VRB03KT 4SM BR SKC
     FM011400 09005KT P6SM SCT040=

USA.gov is the U.S. government's official web portal to all federal, state and local government web resources and services.